Pretoria Irene, South Africa
Current Conditions -  °F | °C
As of 11:00 PM on Saturday 22 Nov 2014 (Local Time) from FAOR Reporting Station
Clear Clear  
Wind Chill: 64°   Ceiling: Unl
Heat Index: 64°   Visibility: 6mi
Dew Point: 52°   Wind: 9mph
Humidity: 64%   Direction: 160°SSE
Pressure: 30.33"   Gusts: NA
Location:  25.92°S, 28.22°E
Report Text: FAOR 222100Z 16008KT CAVOK 18/11 Q1027 NOSIG
Loading
Personal Weather Stations






























Interactive Weather Map New forecast layout! Learn more

10-Day Weather Forecast

Advertisements
Track Severe Weather on mobile